Time;durP1;ratioP1;P1;durP2;ratioP2;P2;SDS_P1;SDS_P2;PMS_P1;PMS_P2;Temp;Humidity;BMP_temperature;BMP_pressure;BME280_temperature;BME280_humidity;BME280_pressure;Samples;Min_cycle;Max_cycle;Signal;HPM_P1;HPM_P2
2023/06/15 00:00:09;;;;;;;5.85;2.40;;;16.90;99.90;;;;;;6224068;22;20095;-81
2023/06/15 00:02:34;;;;;;;5.88;2.85;;;16.80;99.90;;;;;;6248003;22;20018;-81
2023/06/15 00:05:00;;;;;;;7.45;2.70;;;16.80;99.90;;;;;;6301009;22;20012;-82
2023/06/15 00:07:25;;;;;;;7.38;2.55;;;16.80;99.90;;;;;;6250725;22;20019;-82
2023/06/15 00:09:51;;;;;;;6.07;2.65;;;16.70;99.90;;;;;;6226242;22;20019;-82
2023/06/15 00:12:17;;;;;;;8.05;3.08;;;16.70;99.90;;;;;;6302468;22;20434;-82
2023/06/15 00:14:42;;;;;;;7.78;2.88;;;16.60;99.90;;;;;;6251287;22;20015;-82
2023/06/15 00:17:08;;;;;;;7.10;2.78;;;16.60;99.90;;;;;;6276487;22;20437;-81
2023/06/15 00:19:33;;;;;;;6.07;2.70;;;16.50;99.90;;;;;;6276926;22;20008;-82
2023/06/15 00:21:59;;;;;;;7.85;3.15;;;16.60;99.90;;;;;;6226071;22;20396;-82
2023/06/15 00:24:24;;;;;;;6.82;2.75;;;16.70;99.90;;;;;;6251266;22;20015;-82
2023/06/15 00:26:50;;;;;;;6.85;2.60;;;16.50;99.90;;;;;;6276223;22;20145;-82
2023/06/15 00:29:16;;;;;;;6.53;3.05;;;16.50;99.90;;;;;;6226029;22;20346;-82
2023/06/15 00:31:41;;;;;;;6.38;2.58;;;16.50;99.90;;;;;;6250180;22;20015;-82
2023/06/15 00:34:07;;;;;;;10.18;3.40;;;16.50;99.90;;;;;;6225959;22;20015;-82
2023/06/15 00:36:32;;;;;;;7.47;2.97;;;16.40;99.90;;;;;;6225456;22;20018;-82
2023/06/15 00:38:58;;;;;;;9.10;3.10;;;16.40;99.90;;;;;;6276680;22;20012;-82
2023/06/15 00:41:23;;;;;;;7.22;3.05;;;16.40;99.90;;;;;;6302489;22;20047;-82
2023/06/15 00:43:49;;;;;;;6.10;2.65;;;16.30;99.90;;;;;;6276668;22;20012;-82
2023/06/15 00:46:16;;;;;;;6.82;2.95;;;16.30;99.90;;;;;;6301762;22;20011;-82
2023/06/15 00:48:41;;;;;;;6.60;3.03;;;16.30;99.90;;;;;;6225043;22;20007;-82
2023/06/15 00:51:08;;;;;;;7.03;3.38;;;16.20;99.90;;;;;;6276573;22;20004;-81
2023/06/15 00:53:35;;;;;;;7.90;3.08;;;16.20;99.90;;;;;;6276390;22;20008;-81
2023/06/15 00:56:02;;;;;;;6.15;3.08;;;16.10;99.90;;;;;;6250560;22;20003;-81
2023/06/15 00:58:27;;;;;;;6.75;3.10;;;16.10;99.90;;;;;;6276427;22;20103;-81
2023/06/15 01:00:54;;;;;;;7.88;2.95;;;16.10;99.90;;;;;;6250843;22;20420;-80
2023/06/15 01:03:20;;;;;;;7.50;3.10;;;16.00;99.90;;;;;;6249890;22;20008;-80
2023/06/15 01:05:53;;;;;;;8.13;3.05;;;16.00;99.90;;;;;;6276032;22;20015;-81
2023/06/15 01:08:20;;;;;;;5.25;2.60;;;16.00;99.90;;;;;;6250410;22;20070;-81
2023/06/15 01:10:47;;;;;;;8.52;3.05;;;15.90;99.90;;;;;;6225431;22;20111;-82
2023/06/15 01:13:19;;;;;;;7.20;3.17;;;15.90;99.90;;;;;;6225121;22;20039;-82
2023/06/15 01:15:45;;;;;;;9.18;3.30;;;15.90;99.90;;;;;;6225135;22;20091;-81
2023/06/15 01:18:20;;;;;;;6.18;3.03;;;15.90;99.90;;;;;;6249648;22;20012;-81
2023/06/15 01:20:48;;;;;;;6.43;2.85;;;16.00;99.90;;;;;;6250838;22;20264;-82
2023/06/15 01:23:21;;;;;;;9.00;3.15;;;15.90;99.90;;;;;;6225357;22;20022;-81
2023/06/15 01:25:48;;;;;;;6.30;2.80;;;15.90;99.90;;;;;;6223145;22;20020;-81
2023/06/15 01:28:17;;;;;;;6.63;3.20;;;15.90;99.90;;;;;;6224633;22;20051;-81
2023/06/15 01:30:45;;;;;;;7.25;2.75;;;15.90;99.90;;;;;;6224835;22;20447;-81
2023/06/15 01:33:11;;;;;;;8.00;3.10;;;15.90;99.90;;;;;;6224371;22;20008;-81
2023/06/15 01:35:37;;;;;;;7.20;3.00;;;15.90;99.90;;;;;;6224880;22;20446;-81
2023/06/15 01:38:04;;;;;;;7.00;3.42;;;15.90;99.90;;;;;;6224929;22;20472;-81
2023/06/15 01:40:32;;;;;;;8.25;3.00;;;15.90;99.90;;;;;;6276087;22;20057;-81
2023/06/15 01:42:58;;;;;;;7.18;3.10;;;16.00;99.90;;;;;;6250109;22;20019;-81
2023/06/15 01:45:25;;;;;;;6.47;2.88;;;15.90;99.90;;;;;;6225054;22;20457;-80
2023/06/15 01:47:51;;;;;;;7.80;3.10;;;15.90;99.90;;;;;;6249961;22;20016;-80
2023/06/15 01:50:18;;;;;;;5.90;3.15;;;15.70;99.90;;;;;;6225078;22;20012;-81
2023/06/15 01:52:45;;;;;;;6.78;3.20;;;15.60;99.90;;;;;;6250042;22;20043;-81
2023/06/15 01:55:11;;;;;;;6.10;2.92;;;15.60;99.90;;;;;;6249170;22;20030;-81
2023/06/15 01:57:38;;;;;;;7.38;3.40;;;15.50;99.90;;;;;;6250477;22;20016;-81
2023/06/15 02:00:06;;;;;;;6.97;2.83;;;15.50;99.90;;;;;;6249904;22;20015;-81
2023/06/15 02:02:32;;;;;;;6.13;2.90;;;15.60;99.90;;;;;;6224704;22;20442;-81
2023/06/15 02:04:58;;;;;;;7.20;3.15;;;15.60;99.90;;;;;;6224698;22;20011;-81
2023/06/15 02:07:24;;;;;;;6.93;2.83;;;15.50;99.90;;;;;;6301287;22;20022;-81
2023/06/15 02:09:49;;;;;;;6.63;3.10;;;15.50;99.90;;;;;;6225006;22;20469;-81
2023/06/15 02:12:15;;;;;;;7.63;3.10;;;15.40;99.90;;;;;;6275466;22;20051;-81
2023/06/15 02:14:41;;;;;;;7.70;3.28;;;15.40;99.90;;;;;;6224534;22;20019;-81
2023/06/15 02:17:06;;;;;;;6.57;3.17;;;15.40;99.90;;;;;;6224839;22;20396;-81
2023/06/15 02:19:32;;;;;;;7.35;2.95;;;15.40;99.90;;;;;;6275684;22;20026;-81
2023/06/15 02:21:58;;;;;;;5.72;3.22;;;15.30;99.90;;;;;;6224609;22;20103;-81
2023/06/15 02:24:23;;;;;;;6.82;2.90;;;15.30;99.90;;;;;;6274521;22;20428;-82
2023/06/15 02:26:49;;;;;;;7.10;3.45;;;15.20;99.90;;;;;;6225026;22;20030;-81
2023/06/15 02:29:15;;;;;;;7.18;3.17;;;15.20;99.90;;;;;;6301699;22;20035;-82
2023/06/15 02:31:40;;;;;;;8.25;3.45;;;15.10;99.90;;;;;;6275499;22;20133;-83
2023/06/15 02:34:06;;;;;;;7.03;3.33;;;15.10;99.90;;;;;;6275310;22;20444;-82
2023/06/15 02:36:34;;;;;;;7.78;3.78;;;15.00;99.90;;;;;;6249281;22;20008;-81
2023/06/15 02:39:01;;;;;;;8.15;3.75;;;15.00;99.90;;;;;;6275545;22;20007;-82
2023/06/15 02:41:26;;;;;;;7.13;3.60;;;14.90;99.90;;;;;;6249632;22;20023;-81
2023/06/15 02:43:52;;;;;;;8.75;4.20;;;14.80;99.90;;;;;;6224854;22;20008;-82
2023/06/15 02:46:18;;;;;;;7.78;4.15;;;14.80;99.90;;;;;;6224151;22;20007;-82
2023/06/15 02:48:44;;;;;;;7.93;4.05;;;14.70;99.90;;;;;;6250056;22;20012;-82
2023/06/15 02:51:10;;;;;;;8.70;4.45;;;14.70;99.90;;;;;;6249991;22;20031;-81
2023/06/15 02:53:36;;;;;;;7.40;3.67;;;14.60;99.90;;;;;;6249175;22;20457;-81
2023/06/15 02:56:03;;;;;;;9.60;4.63;;;14.60;99.90;;;;;;6274421;22;20014;-81
2023/06/15 02:58:32;;;;;;;7.60;3.90;;;14.50;99.90;;;;;;6249603;22;20437;-81
2023/06/15 03:01:00;;;;;;;6.88;3.70;;;14.50;99.90;;;;;;6249079;22;20383;-81
2023/06/15 03:03:27;;;;;;;10.00;4.25;;;14.40;99.90;;;;;;6248799;22;20027;-80
2023/06/15 03:05:54;;;;;;;9.50;4.63;;;14.40;99.90;;;;;;6238966;22;20019;-80
2023/06/15 03:08:23;;;;;;;9.05;4.43;;;14.40;99.90;;;;;;6297160;22;20055;-81
2023/06/15 03:10:55;;;;;;;7.20;4.28;;;14.50;99.90;;;;;;6249339;22;20012;-81
2023/06/15 03:13:20;;;;;;;9.15;4.50;;;14.40;99.90;;;;;;6249157;22;20007;-82
2023/06/15 03:15:48;;;;;;;8.52;4.60;;;14.40;99.90;;;;;;6275352;22;20023;-81
2023/06/15 03:18:13;;;;;;;13.23;4.78;;;14.40;99.90;;;;;;6224187;22;20018;-81
2023/06/15 03:20:43;;;;;;;8.80;4.50;;;14.30;99.90;;;;;;6275073;22;20086;-81
2023/06/15 03:23:10;;;;;;;10.50;4.93;;;14.30;99.90;;;;;;6249822;22;20022;-81
2023/06/15 03:25:36;;;;;;;9.93;4.78;;;14.30;99.90;;;;;;6249035;22;20458;-81
2023/06/15 03:28:03;;;;;;;9.82;4.55;;;14.30;99.90;;;;;;6224319;22;20022;-81
2023/06/15 03:30:29;;;;;;;9.70;5.00;;;14.30;99.90;;;;;;6249126;22;20014;-83
2023/06/15 03:32:54;;;;;;;7.70;4.10;;;14.30;99.90;;;;;;6274464;22;20058;-82
2023/06/15 03:35:20;;;;;;;9.93;4.78;;;14.20;99.90;;;;;;6212318;22;20008;-82
2023/06/15 03:37:47;;;;;;;11.13;5.03;;;14.20;99.90;;;;;;6288613;22;20020;-81
2023/06/15 03:40:12;;;;;;;10.02;4.53;;;14.30;99.90;;;;;;6211149;22;20468;-81
2023/06/15 03:42:38;;;;;;;8.65;4.43;;;14.40;99.90;;;;;;6237017;22;20011;-81
2023/06/15 03:45:05;;;;;;;8.20;4.68;;;14.40;99.90;;;;;;6212030;22;20020;-81
2023/06/15 03:47:32;;;;;;;7.88;4.45;;;14.40;99.90;;;;;;6236148;22;20022;-81
2023/06/15 03:49:58;;;;;;;8.57;4.35;;;14.40;99.90;;;;;;6211722;22;20014;-81
2023/06/15 03:52:25;;;;;;;7.57;4.28;;;14.40;99.90;;;;;;6210730;22;20094;-81
2023/06/15 03:54:51;;;;;;;8.93;3.95;;;14.50;99.90;;;;;;6237019;22;20019;-81
2023/06/15 03:57:17;;;;;;;8.18;4.15;;;14.50;99.90;;;;;;6239168;22;20358;-81
2023/06/15 03:59:43;;;;;;;7.60;4.03;;;14.60;99.90;;;;;;6238978;22;20026;-81
2023/06/15 04:02:08;;;;;;;10.77;4.00;;;14.60;99.90;;;;;;6248975;22;20015;-81
2023/06/15 04:04:34;;;;;;;9.90;4.45;;;14.70;99.90;;;;;;6224224;22;20110;-81
2023/06/15 04:07:00;;;;;;;11.55;4.43;;;14.70;99.90;;;;;;6274087;22;20047;-81
2023/06/15 04:09:27;;;;;;;9.85;4.75;;;14.70;99.90;;;;;;6224093;22;20007;-81
2023/06/15 04:11:52;;;;;;;9.93;4.53;;;14.70;99.90;;;;;;6223069;22;20469;-81
2023/06/15 04:14:18;;;;;;;7.93;4.20;;;14.60;99.90;;;;;;6249047;22;20034;-81
2023/06/15 04:16:44;;;;;;;9.32;3.95;;;14.70;99.90;;;;;;6249590;22;20054;-81
2023/06/15 04:19:10;;;;;;;9.60;4.00;;;14.60;99.90;;;;;;6248965;22;20019;-81
2023/06/15 04:21:36;;;;;;;7.53;4.25;;;14.60;99.90;;;;;;6248752;22;20012;-81
2023/06/15 04:24:02;;;;;;;8.68;4.47;;;14.50;99.90;;;;;;6224283;22;20061;-81
2023/06/15 04:26:29;;;;;;;8.43;4.70;;;14.50;99.90;;;;;;6248536;22;20022;-81
2023/06/15 04:28:57;;;;;;;10.45;4.63;;;14.40;99.90;;;;;;6275022;22;20010;-81
2023/06/15 04:31:24;;;;;;;9.50;5.45;;;14.40;99.90;;;;;;6248811;22;20058;-81
2023/06/15 04:33:52;;;;;;;9.20;4.88;;;14.40;99.90;;;;;;6249579;22;20011;-82
2023/06/15 04:36:18;;;;;;;10.45;4.90;;;14.50;99.90;;;;;;6243964;22;20015;-81
2023/06/15 04:38:48;;;;;;;11.05;5.25;;;14.60;99.90;;;;;;6211107;22;20022;-82
2023/06/15 04:41:14;;;;;;;9.90;5.07;;;14.60;99.90;;;;;;6262195;22;20476;-81
2023/06/15 04:43:40;;;;;;;7.88;4.68;;;14.70;99.90;;;;;;6238080;22;20012;-81
2023/06/15 04:46:06;;;;;;;10.13;5.45;;;14.80;99.90;;;;;;6239536;22;20509;-81
2023/06/15 04:48:32;;;;;;;10.95;5.13;;;14.90;99.90;;;;;;6219277;22;20099;-81
2023/06/15 04:50:57;;;;;;;10.48;4.80;;;15.00;99.90;;;;;;6250314;22;20496;-81
2023/06/15 04:53:23;;;;;;;8.50;4.80;;;15.00;99.90;;;;;;6250729;22;20008;-81
2023/06/15 04:55:49;;;;;;;8.90;5.00;;;15.10;99.90;;;;;;6250489;22;20008;-81
2023/06/15 04:58:14;;;;;;;9.80;5.05;;;15.20;99.90;;;;;;6302706;22;20011;-81
2023/06/15 05:00:41;;;;;;;10.52;4.50;;;15.30;99.90;;;;;;6250478;22;20011;-81
2023/06/15 05:03:07;;;;;;;10.85;5.45;;;15.30;99.90;;;;;;6276835;22;20090;-81
2023/06/15 05:05:32;;;;;;;8.70;5.18;;;15.40;99.90;;;;;;6225030;22;20035;-80
2023/06/15 05:07:58;;;;;;;8.98;4.60;;;15.40;99.90;;;;;;6276010;22;20073;-81
2023/06/15 05:10:23;;;;;;;10.27;5.07;;;15.50;99.90;;;;;;6226161;22;20012;-80
2023/06/15 05:12:49;;;;;;;10.20;5.20;;;15.60;99.90;;;;;;6301850;22;20063;-81
2023/06/15 05:15:15;;;;;;;9.35;4.57;;;15.60;99.90;;;;;;6300731;22;20037;-81
2023/06/15 05:17:40;;;;;;;9.88;4.80;;;15.80;99.90;;;;;;6224899;22;20011;-81
2023/06/15 05:20:06;;;;;;;8.05;3.92;;;15.80;99.90;;;;;;6225130;22;20023;-81
2023/06/15 05:22:32;;;;;;;8.70;3.97;;;15.90;99.90;;;;;;6225792;22;20057;-80
2023/06/15 05:24:57;;;;;;;14.15;4.95;;;16.00;99.90;;;;;;6250558;22;20016;-81
2023/06/15 05:27:23;;;;;;;9.02;4.30;;;16.10;99.90;;;;;;6276619;22;20515;-80
2023/06/15 05:29:48;;;;;;;9.52;4.60;;;16.20;99.90;;;;;;6275755;22;20388;-81
2023/06/15 05:32:14;;;;;;;10.85;4.50;;;16.30;99.90;;;;;;6276423;22;20008;-81
2023/06/15 05:34:40;;;;;;;8.95;3.90;;;16.40;99.90;;;;;;6224988;22;20008;-81
2023/06/15 05:37:05;;;;;;;10.68;3.83;;;16.50;99.90;;;;;;6301790;22;20441;-80
2023/06/15 05:39:31;;;;;;;8.07;3.60;;;16.60;99.90;;;;;;6224935;22;20031;-81
2023/06/15 05:41:56;;;;;;;8.93;3.95;;;16.70;99.90;;;;;;6276291;22;20087;-81
2023/06/15 05:44:22;;;;;;;7.60;3.53;;;16.80;99.90;;;;;;6275710;22;20387;-80
2023/06/15 05:46:48;;;;;;;6.85;3.45;;;17.00;99.90;;;;;;6301303;22;20019;-81
2023/06/15 05:49:14;;;;;;;10.93;4.07;;;17.10;99.90;;;;;;6225486;22;20010;-80
2023/06/15 05:51:40;;;;;;;8.63;3.78;;;17.20;99.90;;;;;;6222731;22;20019;-80
2023/06/15 05:54:05;;;;;;;6.07;3.28;;;17.30;99.90;;;;;;6215128;22;20016;-81
2023/06/15 05:56:31;;;;;;;7.70;3.38;;;17.50;99.90;;;;;;6218092;22;20087;-80
2023/06/15 05:58:56;;;;;;;7.70;3.78;;;17.60;99.90;;;;;;6238935;22;20012;-80
2023/06/15 06:01:22;;;;;;;6.95;3.60;;;17.70;99.90;;;;;;6212174;22;20018;-80
2023/06/15 06:03:47;;;;;;;7.47;3.30;;;17.90;99.90;;;;;;6290741;22;20016;-80
2023/06/15 06:06:13;;;;;;;7.93;3.42;;;18.00;99.90;;;;;;6291514;22;20011;-80
2023/06/15 06:08:39;;;;;;;8.43;3.72;;;18.10;99.90;;;;;;6267135;22;20030;-80
2023/06/15 06:11:07;;;;;;;5.90;2.85;;;18.20;99.90;;;;;;6263522;22;20016;-81
2023/06/15 06:13:34;;;;;;;6.93;3.28;;;18.40;99.90;;;;;;6239199;22;20391;-80
2023/06/15 06:16:01;;;;;;;6.57;3.15;;;18.50;99.90;;;;;;6216283;22;20015;-81
2023/06/15 06:18:26;;;;;;;10.07;3.70;;;18.60;99.90;;;;;;6247625;22;20022;-79
2023/06/15 06:20:52;;;;;;;9.10;3.45;;;18.60;99.90;;;;;;6295696;22;20396;-79
2023/06/15 06:23:17;;;;;;;8.32;3.10;;;18.80;99.90;;;;;;6272333;22;20027;-79
2023/06/15 06:25:43;;;;;;;7.88;3.17;;;18.90;99.90;;;;;;6274810;22;20023;-78
2023/06/15 06:28:09;;;;;;;9.75;3.85;;;18.90;99.90;;;;;;6299444;22;20121;-79
2023/06/15 06:30:34;;;;;;;6.70;3.13;;;19.10;99.90;;;;;;6223548;22;20090;-79
2023/06/15 06:33:02;;;;;;;7.90;3.00;;;19.10;99.90;;;;;;6274351;22;20008;-78
2023/06/15 06:35:27;;;;;;;10.40;3.65;;;19.20;99.90;;;;;;6249478;22;20024;-79
2023/06/15 06:37:53;;;;;;;7.10;3.08;;;19.30;99.90;;;;;;6223452;22;20019;-78
2023/06/15 06:40:19;;;;;;;7.00;3.17;;;19.40;99.90;;;;;;6273830;22;20016;-79
2023/06/15 06:42:44;;;;;;;7.93;3.53;;;19.50;99.90;;;;;;6223530;22;20012;-78
2023/06/15 06:45:10;;;;;;;7.40;3.20;;;19.60;99.90;;;;;;6222265;22;20019;-79
2023/06/15 06:47:36;;;;;;;6.85;2.92;;;19.60;99.90;;;;;;6248192;22;20012;-78
2023/06/15 06:50:01;;;;;;;8.23;3.10;;;19.80;99.90;;;;;;6249365;22;20382;-79
2023/06/15 06:52:27;;;;;;;7.72;3.30;;;19.80;99.90;;;;;;6273330;22;20115;-78
2023/06/15 06:54:53;;;;;;;8.75;3.38;;;20.00;99.90;;;;;;6249485;22;20008;-78
2023/06/15 06:57:18;;;;;;;8.48;3.55;;;20.00;99.90;;;;;;6248848;22;20062;-78
2023/06/15 06:59:44;;;;;;;7.65;3.03;;;20.10;99.90;;;;;;6273377;22;20666;-78
2023/06/15 07:02:10;;;;;;;7.13;3.35;;;20.20;99.90;;;;;;6223348;22;20012;-78
2023/06/15 07:04:35;;;;;;;7.00;2.97;;;20.30;99.90;;;;;;6248736;22;20018;-78
2023/06/15 07:07:01;;;;;;;6.75;2.80;;;20.30;99.90;;;;;;6273803;22;20033;-78
2023/06/15 07:09:27;;;;;;;7.95;3.05;;;20.50;99.90;;;;;;6248189;22;20015;-78
2023/06/15 07:11:52;;;;;;;8.02;2.97;;;20.60;99.90;;;;;;6299711;22;20007;-78
2023/06/15 07:14:19;;;;;;;7.47;2.95;;;20.60;99.90;;;;;;6247802;22;20011;-79
2023/06/15 07:16:45;;;;;;;6.63;2.88;;;20.70;98.80;;;;;;6299253;22;20008;-80
2023/06/15 07:19:10;;;;;;;8.38;3.10;;;20.70;98.70;;;;;;6221715;22;20492;-79
2023/06/15 07:21:37;;;;;;;8.88;2.92;;;20.80;98.30;;;;;;6248766;22;20011;-79
2023/06/15 07:24:03;;;;;;;6.43;2.90;;;20.80;97.70;;;;;;6222777;22;20003;-80
2023/06/15 07:26:28;;;;;;;7.47;2.80;;;20.90;97.30;;;;;;6223269;22;20564;-80
2023/06/15 07:28:54;;;;;;;7.05;2.55;;;21.00;97.20;;;;;;6299639;22;20014;-80
2023/06/15 07:31:20;;;;;;;6.85;2.95;;;21.10;96.70;;;;;;6274785;22;20042;-80
2023/06/15 07:33:45;;;;;;;10.02;3.83;;;21.10;95.90;;;;;;6223008;22;20016;-79
2023/06/15 07:36:11;;;;;;;7.38;2.90;;;21.20;96.70;;;;;;6223038;22;20087;-79
2023/06/15 07:38:37;;;;;;;8.38;2.90;;;21.30;96.50;;;;;;6274523;22;20037;-79
2023/06/15 07:41:02;;;;;;;6.75;2.90;;;21.50;96.70;;;;;;6222360;22;20015;-79
2023/06/15 07:43:28;;;;;;;8.98;2.78;;;21.50;96.30;;;;;;6274331;22;20012;-79
2023/06/15 07:45:54;;;;;;;7.90;3.05;;;21.50;94.10;;;;;;6222389;22;20008;-79
2023/06/15 07:48:20;;;;;;;6.88;2.90;;;21.60;95.10;;;;;;6223930;22;20042;-79
2023/06/15 07:50:46;;;;;;;7.15;2.90;;;21.70;95.30;;;;;;6248021;22;20178;-79
2023/06/15 07:53:12;;;;;;;7.28;3.20;;;21.70;95.10;;;;;;6222204;22;20012;-80
2023/06/15 07:55:38;;;;;;;6.65;3.05;;;21.70;93.70;;;;;;6221541;22;20138;-80
2023/06/15 07:58:03;;;;;;;8.05;2.90;;;21.80;94.60;;;;;;6222572;22;20015;-79
2023/06/15 08:00:29;;;;;;;5.22;2.70;;;21.80;94.80;;;;;;6274302;22;20016;-79
2023/06/15 08:02:54;;;;;;;6.78;2.55;;;21.90;94.30;;;;;;6300888;22;20023;-80
2023/06/15 08:05:20;;;;;;;8.35;2.63;;;22.00;93.20;;;;;;6300862;22;20409;-78
2023/06/15 08:07:45;;;;;;;7.82;2.85;;;22.00;93.00;;;;;;6222870;22;20396;-77
2023/06/15 08:10:11;;;;;;;6.50;2.75;;;22.10;91.80;;;;;;6300596;22;20041;-78
2023/06/15 08:12:37;;;;;;;5.80;2.72;;;22.10;90.80;;;;;;6272231;22;20015;-78
2023/06/15 08:15:02;;;;;;;6.05;2.60;;;22.20;91.70;;;;;;6247700;22;20015;-78
2023/06/15 08:17:28;;;;;;;8.90;2.80;;;22.20;91.60;;;;;;6223812;22;20050;-78
2023/06/15 08:19:54;;;;;;;8.82;2.92;;;22.30;92.00;;;;;;6273617;22;20445;-78
2023/06/15 08:22:20;;;;;;;7.03;2.55;;;22.30;92.20;;;;;;6220723;22;20022;-78
2023/06/15 08:24:45;;;;;;;5.22;2.58;;;22.40;91.70;;;;;;6274712;22;20055;-78
2023/06/15 08:27:11;;;;;;;7.65;3.10;;;22.50;89.00;;;;;;6301404;22;20319;-78
2023/06/15 08:29:43;;;;;;;6.38;2.80;;;22.50;91.40;;;;;;6251285;22;20004;-79
2023/06/15 08:32:12;;;;;;;7.88;2.50;;;22.80;91.10;;;;;;6224431;22;20012;-78
2023/06/15 08:34:41;;;;;;;6.90;2.80;;;22.80;90.80;;;;;;6225589;22;20012;-79
2023/06/15 08:37:08;;;;;;;6.03;2.80;;;22.70;90.00;;;;;;6224275;22;20552;-78
2023/06/15 08:39:34;;;;;;;7.05;2.88;;;22.80;90.40;;;;;;6275946;22;20476;-80
2023/06/15 08:42:02;;;;;;;7.72;2.85;;;22.90;88.90;;;;;;6248422;22;20012;-79
2023/06/15 08:44:32;;;;;;;5.45;2.80;;;22.90;88.80;;;;;;6224422;22;20025;-79
2023/06/15 08:47:00;;;;;;;6.63;2.95;;;23.00;88.80;;;;;;6250718;22;20334;-78
2023/06/15 08:49:26;;;;;;;8.43;2.65;;;23.10;89.10;;;;;;6250427;22;20458;-78
2023/06/15 08:51:54;;;;;;;7.45;2.67;;;23.10;89.30;;;;;;6250271;22;20442;-78
2023/06/15 08:54:21;;;;;;;6.57;3.03;;;23.20;86.60;;;;;;6250028;22;20012;-79
2023/06/15 08:56:46;;;;;;;5.18;2.83;;;23.20;84.90;;;;;;6250962;22;20130;-79
2023/06/15 08:59:12;;;;;;;6.82;2.80;;;23.30;85.10;;;;;;6276107;22;20035;-79
2023/06/15 09:01:41;;;;;;;8.80;2.60;;;23.30;85.20;;;;;;6271721;22;20007;-78
2023/06/15 09:04:07;;;;;;;6.60;2.72;;;23.40;85.80;;;;;;6225171;22;20043;-77
2023/06/15 09:06:33;;;;;;;6.43;2.70;;;23.50;85.40;;;;;;6224616;22;20337;-78
2023/06/15 09:08:59;;;;;;;8.75;3.10;;;23.60;86.00;;;;;;6275660;22;20020;-80
2023/06/15 09:11:25;;;;;;;7.32;3.08;;;23.60;85.60;;;;;;6275885;22;20008;-79
2023/06/15 09:13:51;;;;;;;5.10;2.42;;;23.70;84.20;;;;;;6220696;22;20434;-79
2023/06/15 09:16:16;;;;;;;7.50;2.97;;;23.70;83.70;;;;;;6222376;22;20015;-80
2023/06/15 09:18:48;;;;;;;6.05;2.92;;;23.70;80.20;;;;;;6250485;22;20099;-79
2023/06/15 09:21:14;;;;;;;9.70;3.17;;;23.80;83.50;;;;;;6247883;22;20410;-79
2023/06/15 09:23:46;;;;;;;8.68;2.72;;;23.80;83.00;;;;;;6224806;22;20091;-79
2023/06/15 09:26:26;;;;;;;6.88;2.90;;;23.90;83.30;;;;;;6275073;22;20008;-79
2023/06/15 09:28:56;;;;;;;7.43;3.53;;;24.00;83.40;;;;;;6223339;22;20438;-79
2023/06/15 09:31:29;;;;;;;5.47;2.60;;;24.00;80.40;;;;;;6248960;22;20012;-79
2023/06/15 09:34:05;;;;;;;6.50;2.70;;;24.10;81.00;;;;;;6224601;22;20047;-79
2023/06/15 09:36:44;;;;;;;9.52;3.10;;;24.10;78.70;;;;;;6223144;22;20004;-79
2023/06/15 09:39:12;;;;;;;7.88;3.10;;;24.20;74.70;;;;;;6249404;22;20517;-79
2023/06/15 09:42:00;;;;;;;7.38;2.75;;;24.20;76.70;;;;;;6248194;22;20022;-79
2023/06/15 09:44:27;;;;;;;7.60;3.00;;;24.30;78.60;;;;;;6249510;22;20019;-81
2023/06/15 09:46:57;;;;;;;5.20;2.63;;;24.40;72.70;;;;;;6224603;22;20449;-80
2023/06/15 09:49:27;;;;;;;5.78;2.88;;;24.30;73.40;;;;;;6224383;22;20012;-80
2023/06/15 09:51:54;;;;;;;5.43;2.70;;;24.50;74.90;;;;;;6300706;22;20050;-80
2023/06/15 09:54:22;;;;;;;5.75;2.50;;;24.50;71.10;;;;;;6250122;22;20209;-80
2023/06/15 09:56:50;;;;;;;9.25;2.70;;;24.60;71.80;;;;;;6221408;22;20042;-80
2023/06/15 09:59:16;;;;;;;7.78;2.80;;;24.60;73.10;;;;;;6224255;22;20016;-80
2023/06/15 10:01:45;;;;;;;7.15;2.80;;;24.70;73.60;;;;;;6249461;22;20520;-81
2023/06/15 10:04:12;;;;;;;6.80;2.70;;;24.70;71.90;;;;;;6224317;22;20012;-80
2023/06/15 10:06:43;;;;;;;6.80;2.70;;;24.70;70.50;;;;;;6222955;22;20012;-80
2023/06/15 10:09:11;;;;;;;6.57;2.70;;;24.70;69.90;;;;;;6224418;22;20012;-80
2023/06/15 10:11:41;;;;;;;6.93;2.80;;;24.70;68.60;;;;;;6249578;22;20018;-80
2023/06/15 10:14:28;;;;;;;8.30;2.92;;;24.90;71.40;;;;;;6248499;22;20007;-80
2023/06/15 10:17:03;;;;;;;8.40;2.88;;;24.90;68.80;;;;;;6224188;22;20012;-80
2023/06/15 10:19:40;;;;;;;8.85;2.88;;;25.00;72.20;;;;;;6300434;22;20058;-80
2023/06/15 10:22:11;;;;;;;6.32;2.75;;;24.90;65.70;;;;;;6223784;22;20015;-79
2023/06/15 10:24:38;;;;;;;7.60;3.10;;;25.00;68.70;;;;;;6224091;22;20038;-80
2023/06/15 10:27:06;;;;;;;5.75;2.40;;;25.10;69.50;;;;;;6275078;22;20496;-79
2023/06/15 10:29:41;;;;;;;7.65;2.92;;;25.10;70.80;;;;;;6223681;22;20450;-80
2023/06/15 10:32:27;;;;;;;6.78;2.72;;;25.20;67.20;;;;;;6224278;22;20011;-79
2023/06/15 10:35:08;;;;;;;6.90;2.88;;;25.30;69.20;;;;;;6223715;22;20019;-79
2023/06/15 10:37:43;;;;;;;8.75;2.92;;;25.30;67.50;;;;;;6248431;22;20011;-80
2023/06/15 10:40:32;;;;;;;9.15;3.00;;;25.30;65.60;;;;;;6222769;22;20016;-79
2023/06/15 10:43:01;;;;;;;7.18;2.65;;;25.40;65.10;;;;;;6248693;22;20019;-80
2023/06/15 10:45:29;;;;;;;5.82;2.70;;;25.40;66.80;;;;;;6222849;22;20094;-80
2023/06/15 10:47:57;;;;;;;5.38;2.58;;;25.40;67.90;;;;;;6223090;22;20038;-80
2023/06/15 10:50:24;;;;;;;5.65;2.83;;;25.30;61.90;;;;;;6223736;22;20043;-79
2023/06/15 10:52:50;;;;;;;6.65;2.60;;;25.40;64.00;;;;;;6222541;22;20034;-79
2023/06/15 10:55:16;;;;;;;6.43;2.75;;;25.50;65.70;;;;;;6274252;22;20004;-80
2023/06/15 10:57:41;;;;;;;7.10;3.03;;;25.50;65.20;;;;;;6249278;22;20402;-79
2023/06/15 11:00:10;;;;;;;6.30;2.88;;;25.60;64.90;;;;;;6224096;22;20008;-79
2023/06/15 11:02:35;;;;;;;5.68;2.60;;;25.60;65.30;;;;;;6248070;22;20090;-80
2023/06/15 11:05:08;;;;;;;6.13;2.80;;;25.70;64.80;;;;;;6299915;22;20092;-80
2023/06/15 11:07:47;;;;;;;7.38;3.22;;;25.70;63.40;;;;;;6223551;22;20503;-80
2023/06/15 11:10:19;;;;;;;7.88;2.88;;;25.50;56.20;;;;;;6223144;22;20046;-80
2023/06/15 11:12:46;;;;;;;5.85;3.10;;;25.50;62.70;;;;;;6273855;22;20334;-80
2023/06/15 11:15:16;;;;;;;6.78;2.92;;;25.60;60.60;;;;;;6222685;22;20512;-79
2023/06/15 11:18:03;;;;;;;6.03;2.53;;;25.40;57.70;;;;;;6274414;22;20011;-79
2023/06/15 11:20:38;;;;;;;6.68;3.15;;;25.40;60.40;;;;;;6222063;22;20051;-80
2023/06/15 11:23:18;;;;;;;7.30;3.00;;;25.50;57.70;;;;;;6223512;22;20091;-80
2023/06/15 11:25:46;;;;;;;6.60;2.47;;;25.50;58.90;;;;;;6223253;22;20011;-80
2023/06/15 11:28:15;;;;;;;6.72;2.88;;;25.50;60.40;;;;;;6246979;22;20012;-79
2023/06/15 11:30:43;;;;;;;7.20;3.00;;;25.70;60.00;;;;;;6221621;22;20004;-78
2023/06/15 11:33:13;;;;;;;6.97;2.63;;;25.70;60.20;;;;;;6224189;22;20019;-80
2023/06/15 11:35:40;;;;;;;4.85;2.38;;;25.70;60.60;;;;;;6248940;22;20476;-80
2023/06/15 11:38:07;;;;;;;5.10;2.60;;;25.70;60.40;;;;;;6223167;22;20020;-80
2023/06/15 11:40:33;;;;;;;7.80;2.70;;;25.80;59.00;;;;;;6219919;22;20377;-80
2023/06/15 11:43:00;;;;;;;6.32;2.90;;;25.70;58.60;;;;;;6246138;22;20037;-80
2023/06/15 11:45:26;;;;;;;5.28;2.55;;;25.40;55.20;;;;;;6222948;22;20046;-78
2023/06/15 11:47:52;;;;;;;7.65;3.08;;;25.60;57.60;;;;;;6273531;22;20012;-80
2023/06/15 11:50:20;;;;;;;6.88;2.90;;;25.70;57.90;;;;;;6273615;22;20007;-79
2023/06/15 11:52:46;;;;;;;4.85;2.42;;;25.70;57.20;;;;;;6222254;22;20038;-79
2023/06/15 11:55:14;;;;;;;6.07;2.78;;;25.60;58.00;;;;;;6220094;22;20012;-80
2023/06/15 11:57:42;;;;;;;5.05;2.50;;;25.70;56.60;;;;;;6247122;22;20377;-79
2023/06/15 12:00:10;;;;;;;5.93;3.00;;;25.50;57.90;;;;;;6248471;22;20016;-80
2023/06/15 12:02:36;;;;;;;7.47;3.13;;;25.50;58.00;;;;;;6224598;22;20039;-80
2023/06/15 12:05:02;;;;;;;5.43;2.70;;;25.50;58.10;;;;;;6226089;22;20015;-79
2023/06/15 12:07:32;;;;;;;9.45;3.13;;;25.60;57.40;;;;;;6301478;22;20015;-79
2023/06/15 12:10:00;;;;;;;6.50;2.83;;;25.30;55.90;;;;;;6226316;22;20090;-80
2023/06/15 12:12:35;;;;;;;8.35;3.00;;;25.40;58.20;;;;;;6276492;22;20099;-80
2023/06/15 12:15:02;;;;;;;6.45;2.90;;;25.50;57.20;;;;;;6301644;22;20039;-80
2023/06/15 12:17:33;;;;;;;7.53;2.75;;;25.40;57.20;;;;;;6223997;22;20095;-80
2023/06/15 12:20:09;;;;;;;7.00;2.80;;;25.50;58.30;;;;;;6251369;22;20023;-80
2023/06/15 12:22:43;;;;;;;9.13;4.65;;;25.40;57.30;;;;;;6225375;22;20346;-80
2023/06/15 12:25:09;;;;;;;6.25;3.10;;;25.50;58.00;;;;;;6224457;22;20008;-80
2023/06/15 12:27:45;;;;;;;6.28;2.88;;;25.50;56.70;;;;;;6275774;22;20173;-81
2023/06/15 12:30:16;;;;;;;5.57;2.70;;;25.40;54.70;;;;;;6225198;22;20529;-80
2023/06/15 12:32:43;;;;;;;5.72;3.10;;;25.40;56.40;;;;;;6301866;22;20011;-80
2023/06/15 12:35:37;;;;;;;7.63;2.90;;;25.40;54.40;;;;;;6251229;22;20485;-80
2023/06/15 12:38:06;;;;;;;8.43;3.35;;;25.40;54.20;;;;;;6224846;22;20034;-80
2023/06/15 12:40:33;;;;;;;4.85;2.80;;;25.30;56.30;;;;;;6225485;22;20015;-80
2023/06/15 12:43:05;;;;;;;7.22;3.25;;;25.30;57.30;;;;;;6224768;22;20011;-77
2023/06/15 12:45:33;;;;;;;6.97;3.80;;;25.30;55.20;;;;;;6224350;22;20016;-80